Leoville, Canada
Current Conditions -  °F | °C
As of 5:00 PM on Wednesday 26 Nov 2014 (Local Time) from CYLJ Reporting Station
Light Snow Light Snow  
Wind Chill: -4°   Ceiling: 3000
Heat Index: -4°   Visibility: 13mi
Dew Point: -9°   Wind: 0mph
Humidity: 78%   Direction: NA
Pressure: 30.27"   Gusts: NA
Location:  53.63°N, 107.55°W
Report Text: CYLJ 262300Z 00000KT 13SM -SN FEW015 BKN030 M20/M23 A3027 RMK SC1SC6 SLP312
Loading
Personal Weather Stations






























Interactive Weather Map New forecast layout! Learn more

10-Day Weather Forecast

Advertisements
Track Severe Weather on mobile